Legend — WDF9316 — position and weather

sailwx.info

Track history (hours):
 
Tides and Currents Weather Stations Pressure Air Temp Water Temp Dewpoint Dewpoint Depression Visibility Wind Speed Wind Dir Waves Ship Positions

Legend

Owner: Crowley Maritime, Seattle, WA. More information available from US FCC via Universal Licensing System and Coast Guard Vessel Documentation Center.

Last reported at 2016-Jun-27 03:29 UTC. Time now 2016-Jun-28 18:54 UTC.
Position N 29°45' W 090°01'.

Length 212 m; draft 10.2 m.

Type: Towing. MMSI: 366709000.

Date/timePositionNaut miles runAvg speedWind from/ knotsBaromVisibWave heightAir tempDewpointWater temp
2016-Jun-27 03:29N 29°45' W 090°01'1010.2
2016-Jun-27 02:29N 29°53' W 089°54'9 9.5
2016-Jun-27 01:34N 29°55' W 090°04'10 9.2
2016-Jun-27 00:29N 29°58' W 090°15'0 0.0
2016-Jun-25 02:06N 29°58' W 090°15'4 8.1
2016-Jun-25 01:33N 29°56' W 090°11'7 6.6
2016-Jun-25 00:33N 29°56' W 090°03'8 7.5
2016-Jun-24 23:33N 29°55' W 089°55'3 2.5
2016-Jun-24 22:31N 29°52' W 089°56'0 0.0
2016-Jun-24 21:31N 29°52' W 089°56'0 0.0
2016-Jun-24 20:31N 29°52' W 089°56'0 0.0
2016-Jun-24 19:31N 29°52' W 089°56'0 0.0
2016-Jun-24 18:31N 29°52' W 089°56'0 0.0
2016-Jun-24 17:31N 29°52' W 089°56'1 1.0
2016-Jun-24 16:33N 29°53' W 089°57'8 8.3
2016-Jun-24 15:33N 29°45' W 090°01'40210.8
2016-Jun-23 02:27N 27°37' W 082°47'1112.4
2016-Jun-23 01:33N 27°41' W 082°35'1211.7
2016-Jun-23 00:33N 27°50' W 082°27'7 6.5
2016-Jun-22 23:33N 27°57' W 082°27'0 0.3
2016-Jun-22 22:33N 27°57' W 082°27'0 0.0
2016-Jun-22 21:33N 27°57' W 082°27'0 0.0
2016-Jun-22 20:33N 27°57' W 082°27'0 0.0
2016-Jun-22 19:33N 27°57' W 082°27'0 0.0
2016-Jun-22 18:33N 27°57' W 082°27'0 0.0
2016-Jun-22 17:33N 27°57' W 082°27'0 0.0
2016-Jun-22 16:33N 27°57' W 082°27'0 0.0
2016-Jun-22 15:33N 27°57' W 082°27'0 0.0
2016-Jun-22 14:33N 27°57' W 082°27'0 0.0
2016-Jun-22 13:33N 27°57' W 082°27'0 0.0
2016-Jun-22 12:33N 27°57' W 082°27'0 0.0
2016-Jun-22 11:33N 27°57' W 082°27'0 0.0
2016-Jun-22 10:33N 27°57' W 082°27'0 0.0
2016-Jun-22 09:33N 27°57' W 082°27'0 0.0
2016-Jun-22 08:33N 27°57' W 082°27'0 0.0
2016-Jun-22 07:33N 27°57' W 082°27'0 0.0
2016-Jun-22 06:33N 27°57' W 082°27'0 0.0
2016-Jun-22 05:33N 27°57' W 082°27'0 0.0
2016-Jun-22 04:33N 27°57' W 082°27'1 1.3
2016-Jun-22 03:33N 27°55' W 082°27'0 0.4
2016-Jun-22 02:32N 27°55' W 082°27'0 0.0
2016-Jun-22 01:32N 27°55' W 082°27'0 0.0
2016-Jun-22 00:32N 27°55' W 082°27'0 0.0
2016-Jun-21 23:32N 27°55' W 082°27'0 0.0
2016-Jun-21 22:32N 27°55' W 082°27'0 0.0
2016-Jun-21 21:32N 27°55' W 082°27'0 0.0
2016-Jun-21 20:32N 27°55' W 082°27'0 0.0
2016-Jun-21 19:32N 27°55' W 082°27'0 0.0
2016-Jun-21 18:32N 27°55' W 082°27'0 0.0
2016-Jun-21 17:32N 27°55' W 082°27'0 0.0
2016-Jun-21 16:32N 27°55' W 082°27'0 0.0
2016-Jun-21 15:32N 27°55' W 082°27'0 0.0
2016-Jun-21 14:32N 27°55' W 082°27'0 0.0
2016-Jun-21 13:32N 27°55' W 082°27'0 0.0
2016-Jun-21 12:32N 27°55' W 082°27'0 0.0
2016-Jun-21 11:32N 27°55' W 082°27'0 0.0
2016-Jun-21 10:32N 27°55' W 082°27'0 0.0
2016-Jun-21 09:33N 27°55' W 082°27'2 2.1
2016-Jun-21 08:33N 27°53' W 082°26'9 8.8
2016-Jun-21 07:33N 27°45' W 082°31'40910.8
2016-Jun-19 17:30N 29°43' W 089°59'1010.7
2016-Jun-19 16:34N 29°52' W 089°57'7 7.0
2016-Jun-19 15:33N 29°56' W 090°03'9 8.6
2016-Jun-19 14:33N 29°57' W 090°13'1510.8
2016-Jun-19 13:12N 30°03' W 090°29'14 0.4
2016-Jun-17 22:32N 29°58' W 090°14'6 6.3
2016-Jun-17 21:33N 29°55' W 090°08'12 1.7
2016-Jun-17 14:26N 29°53' W 089°54'0 0.0
2016-Jun-17 13:32N 29°53' W 089°54'0 0.0
2016-Jun-17 12:08N 29°53' W 089°54'0 0.0
2016-Jun-17 11:32N 29°53' W 089°54'0 0.0
2016-Jun-17 10:26N 29°53' W 089°54'0 0.0
2016-Jun-17 09:26N 29°53' W 089°54'0 0.0
2016-Jun-17 08:32N 29°53' W 089°54'0 0.0
2016-Jun-17 07:26N 29°53' W 089°54'  
Track history (hours):
 
Tides and Currents Weather Stations Pressure Air Temp Water Temp Dewpoint Dewpoint Depression Visibility Wind Speed Wind Dir Waves Ship Positions

Legend

Owner: Crowley Maritime, Seattle, WA. More information available from US FCC via Universal Licensing System and Coast Guard Vessel Documentation Center.

Last reported at 2016-Jun-27 03:29 UTC. Time now 2016-Jun-28 18:54 UTC.
Position N 29°45' W 090°01'.

Length 212 m; draft 10.2 m.

Type: Towing. MMSI: 366709000.

Date/timePositionNaut miles runAvg speedWind from/ knotsBaromVisibWave heightAir tempDewpointWater temp
2016-Jun-27 03:29N 29°45' W 090°01'1010.2
2016-Jun-27 02:29N 29°53' W 089°54'9 9.5
2016-Jun-27 01:34N 29°55' W 090°04'10 9.2
2016-Jun-27 00:29N 29°58' W 090°15'0 0.0
2016-Jun-25 02:06N 29°58' W 090°15'4 8.1
2016-Jun-25 01:33N 29°56' W 090°11'7 6.6
2016-Jun-25 00:33N 29°56' W 090°03'8 7.5
2016-Jun-24 23:33N 29°55' W 089°55'3 2.5
2016-Jun-24 22:31N 29°52' W 089°56'0 0.0
2016-Jun-24 21:31N 29°52' W 089°56'0 0.0
2016-Jun-24 20:31N 29°52' W 089°56'0 0.0
2016-Jun-24 19:31N 29°52' W 089°56'0 0.0
2016-Jun-24 18:31N 29°52' W 089°56'0 0.0
2016-Jun-24 17:31N 29°52' W 089°56'1 1.0
2016-Jun-24 16:33N 29°53' W 089°57'8 8.3
2016-Jun-24 15:33N 29°45' W 090°01'40210.8
2016-Jun-23 02:27N 27°37' W 082°47'1112.4
2016-Jun-23 01:33N 27°41' W 082°35'1211.7
2016-Jun-23 00:33N 27°50' W 082°27'7 6.5
2016-Jun-22 23:33N 27°57' W 082°27'0 0.3
2016-Jun-22 22:33N 27°57' W 082°27'0 0.0
2016-Jun-22 21:33N 27°57' W 082°27'0 0.0
2016-Jun-22 20:33N 27°57' W 082°27'0 0.0
2016-Jun-22 19:33N 27°57' W 082°27'0 0.0
2016-Jun-22 18:33N 27°57' W 082°27'0 0.0
2016-Jun-22 17:33N 27°57' W 082°27'0 0.0
2016-Jun-22 16:33N 27°57' W 082°27'0 0.0
2016-Jun-22 15:33N 27°57' W 082°27'0 0.0
2016-Jun-22 14:33N 27°57' W 082°27'0 0.0
2016-Jun-22 13:33N 27°57' W 082°27'0 0.0
2016-Jun-22 12:33N 27°57' W 082°27'0 0.0
2016-Jun-22 11:33N 27°57' W 082°27'0 0.0
2016-Jun-22 10:33N 27°57' W 082°27'0 0.0
2016-Jun-22 09:33N 27°57' W 082°27'0 0.0
2016-Jun-22 08:33N 27°57' W 082°27'0 0.0
2016-Jun-22 07:33N 27°57' W 082°27'0 0.0
2016-Jun-22 06:33N 27°57' W 082°27'0 0.0
2016-Jun-22 05:33N 27°57' W 082°27'0 0.0
2016-Jun-22 04:33N 27°57' W 082°27'1 1.3
2016-Jun-22 03:33N 27°55' W 082°27'0 0.4
2016-Jun-22 02:32N 27°55' W 082°27'0 0.0
2016-Jun-22 01:32N 27°55' W 082°27'0 0.0
2016-Jun-22 00:32N 27°55' W 082°27'0 0.0
2016-Jun-21 23:32N 27°55' W 082°27'0 0.0
2016-Jun-21 22:32N 27°55' W 082°27'0 0.0
2016-Jun-21 21:32N 27°55' W 082°27'0 0.0
2016-Jun-21 20:32N 27°55' W 082°27'0 0.0
2016-Jun-21 19:32N 27°55' W 082°27'0 0.0
2016-Jun-21 18:32N 27°55' W 082°27'0 0.0
2016-Jun-21 17:32N 27°55' W 082°27'0 0.0
2016-Jun-21 16:32N 27°55' W 082°27'0 0.0
2016-Jun-21 15:32N 27°55' W 082°27'0 0.0
2016-Jun-21 14:32N 27°55' W 082°27'0 0.0
2016-Jun-21 13:32N 27°55' W 082°27'0 0.0
2016-Jun-21 12:32N 27°55' W 082°27'0 0.0
2016-Jun-21 11:32N 27°55' W 082°27'0 0.0
2016-Jun-21 10:32N 27°55' W 082°27'0 0.0
2016-Jun-21 09:33N 27°55' W 082°27'2 2.1
2016-Jun-21 08:33N 27°53' W 082°26'9 8.8
2016-Jun-21 07:33N 27°45' W 082°31'40910.8
2016-Jun-19 17:30N 29°43' W 089°59'1010.7
2016-Jun-19 16:34N 29°52' W 089°57'7 7.0
2016-Jun-19 15:33N 29°56' W 090°03'9 8.6
2016-Jun-19 14:33N 29°57' W 090°13'1510.8
2016-Jun-19 13:12N 30°03' W 090°29'14 0.4
2016-Jun-17 22:32N 29°58' W 090°14'6 6.3
2016-Jun-17 21:33N 29°55' W 090°08'12 1.7
2016-Jun-17 14:26N 29°53' W 089°54'0 0.0
2016-Jun-17 13:32N 29°53' W 089°54'0 0.0
2016-Jun-17 12:08N 29°53' W 089°54'0 0.0
2016-Jun-17 11:32N 29°53' W 089°54'0 0.0
2016-Jun-17 10:26N 29°53' W 089°54'0 0.0
2016-Jun-17 09:26N 29°53' W 089°54'0 0.0
2016-Jun-17 08:32N 29°53' W 089°54'0 0.0
2016-Jun-17 07:26N 29°53' W 089°54'  

Dump ship's entire track history